createdAt,value
2019-04-16T00:01:45.953Z,6.58
2019-04-16T00:03:23.067Z,6.57
2019-04-16T00:05:07.446Z,6.51
2019-04-16T00:07:01.626Z,6.49
2019-04-16T00:08:42.268Z,6.50
2019-04-16T00:10:35.649Z,6.48
2019-04-16T00:12:23.733Z,6.46
2019-04-16T00:14:04.608Z,6.43
2019-04-16T00:15:41.346Z,6.38
2019-04-16T00:17:17.512Z,6.35
2019-04-16T00:18:57.980Z,6.35
2019-04-16T00:20:29.712Z,6.28
2019-04-16T00:22:18.136Z,6.26
2019-04-16T00:24:18.575Z,6.23
2019-04-16T00:25:56.493Z,6.32
2019-04-16T00:27:34.788Z,6.25
2019-04-16T00:29:10.010Z,6.20
2019-04-16T00:30:48.556Z,6.20
2019-04-16T00:32:26.744Z,6.20
2019-04-16T00:34:03.603Z,6.22
2019-04-16T00:35:39.391Z,6.15
2019-04-16T00:37:21.337Z,6.16
2019-04-16T00:38:55.322Z,6.16
2019-04-16T00:40:31.339Z,6.12
2019-04-16T00:42:07.278Z,6.11
2019-04-16T00:43:46.014Z,6.14
2019-04-16T00:45:21.479Z,6.11
2019-04-16T00:46:59.942Z,6.11
2019-04-16T00:48:35.479Z,6.13
2019-04-16T00:50:11.044Z,6.11
2019-04-16T00:51:46.406Z,6.14
2019-04-16T00:53:22.368Z,6.11
2019-04-16T00:54:57.864Z,6.07
2019-04-16T00:56:33.573Z,6.18
2019-04-16T00:58:09.232Z,6.16
2019-04-16T00:59:44.490Z,6.21
2019-04-16T01:01:19.833Z,6.22
2019-04-16T01:03:01.316Z,6.22
2019-04-16T01:04:39.704Z,6.16
2019-04-16T01:06:18.431Z,6.17
2019-04-16T01:07:53.820Z,6.24
2019-04-16T01:09:31.699Z,6.23
2019-04-16T01:11:07.203Z,6.22
2019-04-16T01:12:42.288Z,6.20
2019-04-16T01:14:17.567Z,6.16
2019-04-16T01:15:53.125Z,6.17
2019-04-16T01:17:28.624Z,6.20
2019-04-16T01:19:09.515Z,6.18
2019-04-16T01:20:44.058Z,6.25
2019-04-16T01:22:19.494Z,6.20
2019-04-16T01:23:54.710Z,6.14
2019-04-16T01:25:31.427Z,6.14
2019-04-16T01:27:07.187Z,6.06
2019-04-16T01:28:48.186Z,6.07
2019-04-16T01:30:36.551Z,6.19
2019-04-16T01:32:50.301Z,6.14
2019-04-16T01:34:48.335Z,6.17
2019-04-16T01:36:48.563Z,6.09
2019-04-16T01:38:43.326Z,6.11
2019-04-16T01:40:27.509Z,6.19
2019-04-16T01:42:02.837Z,6.11
2019-04-16T01:43:38.041Z,6.14
2019-04-16T01:45:16.982Z,6.18
2019-04-16T01:46:52.268Z,6.20
2019-04-16T01:48:27.699Z,6.17
2019-04-16T01:50:03.525Z,6.13
2019-04-16T01:51:39.086Z,6.12
2019-04-16T01:53:36.961Z,6.10
2019-04-16T01:55:12.218Z,6.13
2019-04-16T01:56:47.695Z,6.16
2019-04-16T01:58:24.208Z,6.21
2019-04-16T01:59:59.869Z,6.06
2019-04-16T02:01:37.120Z,6.10
2019-04-16T02:03:17.706Z,6.15
2019-04-16T02:04:52.940Z,6.11
2019-04-16T02:06:42.978Z,6.09
2019-04-16T02:08:19.227Z,6.20
2019-04-16T02:09:54.627Z,6.16
2019-04-16T02:11:32.752Z,6.20
2019-04-16T02:13:08.929Z,6.17
2019-04-16T02:14:44.281Z,6.14
2019-04-16T02:16:22.385Z,6.14
2019-04-16T02:17:58.773Z,6.09
2019-04-16T02:19:35.778Z,6.08
2019-04-16T02:21:11.325Z,6.07
2019-04-16T02:22:50.988Z,6.02
2019-04-16T02:24:26.366Z,6.03
2019-04-16T02:26:01.703Z,5.97
2019-04-16T02:27:37.106Z,5.89
2019-04-16T02:29:12.538Z,5.83
2019-04-16T02:30:49.100Z,5.78
2019-04-16T02:32:24.575Z,5.83
2019-04-16T02:33:59.937Z,5.91
2019-04-16T02:35:35.461Z,5.87
2019-04-16T02:37:11.051Z,5.86
2019-04-16T02:38:52.759Z,5.85
2019-04-16T02:40:23.976Z,5.90
2019-04-16T02:42:03.614Z,5.90
2019-04-16T02:43:41.057Z,5.92
2019-04-16T02:45:22.717Z,5.89
2019-04-16T02:46:53.688Z,5.88
2019-04-16T02:48:29.071Z,5.86
2019-04-16T02:50:06.595Z,5.90
2019-04-16T02:52:01.134Z,5.88
2019-04-16T02:53:40.288Z,5.79
2019-04-16T02:55:42.854Z,5.76
2019-04-16T02:57:32.442Z,5.66
2019-04-16T02:59:17.387Z,5.53
2019-04-16T03:01:06.383Z,5.48
2019-04-16T03:03:03.531Z,5.39
2019-04-16T03:04:43.152Z,5.35
2019-04-16T03:06:20.923Z,5.30
2019-04-16T03:07:57.662Z,5.28
2019-04-16T03:09:33.536Z,5.21
2019-04-16T03:11:10.011Z,5.28
2019-04-16T03:12:45.249Z,5.21
2019-04-16T03:14:20.281Z,5.15
2019-04-16T03:16:29.285Z,5.20
2019-04-16T03:18:04.730Z,5.17
2019-04-16T03:19:41.956Z,5.05
2019-04-16T03:21:17.094Z,5.07
2019-04-16T03:22:55.552Z,5.10
2019-04-16T03:24:30.977Z,5.10
2019-04-16T03:26:06.025Z,5.12
2019-04-16T03:27:41.288Z,5.15
2019-04-16T03:29:17.500Z,5.09
2019-04-16T03:30:52.847Z,5.09
2019-04-16T03:32:33.186Z,4.98
2019-04-16T03:34:05.790Z,4.93
2019-04-16T03:35:41.286Z,4.78
2019-04-16T03:37:17.600Z,4.64
2019-04-16T03:38:53.125Z,4.61
2019-04-16T03:40:28.977Z,4.73
2019-04-16T03:42:04.317Z,4.76
2019-04-16T03:43:39.892Z,4.71
2019-04-16T03:45:16.588Z,4.78
2019-04-16T03:46:52.288Z,5.06
2019-04-16T03:48:28.259Z,5.21
2019-04-16T03:50:03.983Z,5.18
2019-04-16T03:51:39.444Z,5.23
2019-04-16T03:53:17.587Z,5.48
2019-04-16T03:54:54.957Z,5.56
2019-04-16T03:56:30.509Z,5.69
2019-04-16T03:58:16.313Z,5.85
2019-04-16T03:59:51.620Z,5.70
2019-04-16T04:01:26.801Z,5.74
2019-04-16T04:03:01.795Z,5.62
2019-04-16T04:04:37.126Z,5.58
2019-04-16T04:06:12.496Z,5.63
2019-04-16T04:07:47.970Z,5.75
2019-04-16T04:09:23.621Z,5.80
2019-04-16T04:10:59.444Z,5.67
2019-04-16T04:12:35.101Z,5.62
2019-04-16T04:14:11.872Z,5.69
2019-04-16T04:15:47.272Z,5.87
2019-04-16T04:17:22.420Z,5.89
2019-04-16T04:19:15.384Z,5.89
2019-04-16T04:20:53.910Z,5.86
2019-04-16T04:22:33.852Z,5.89
2019-04-16T04:24:10.556Z,5.82
2019-04-16T04:25:46.054Z,5.73
2019-04-16T04:27:21.844Z,5.68
2019-04-16T04:28:58.578Z,5.80
2019-04-16T04:30:33.565Z,5.77
2019-04-16T04:32:08.850Z,5.78
2019-04-16T04:33:44.118Z,5.84
2019-04-16T04:35:21.753Z,5.83
2019-04-16T04:36:59.884Z,5.87
2019-04-16T04:38:37.507Z,5.82
2019-04-16T04:40:12.947Z,5.68
2019-04-16T04:41:49.216Z,5.64
2019-04-16T04:43:29.357Z,5.63
2019-04-16T04:45:08.424Z,5.57
2019-04-16T04:46:43.192Z,5.59
2019-04-16T04:48:23.015Z,5.50
2019-04-16T04:49:59.520Z,5.56
2019-04-16T04:51:36.441Z,5.58
2019-04-16T04:53:12.678Z,5.57
2019-04-16T04:54:48.064Z,5.59
2019-04-16T04:56:27.675Z,5.51
2019-04-16T04:58:02.802Z,5.44
2019-04-16T04:59:37.522Z,5.64
2019-04-16T05:01:14.249Z,5.65
2019-04-16T05:02:49.491Z,5.70
2019-04-16T05:04:43.638Z,5.61
2019-04-16T05:06:26.839Z,5.76
2019-04-16T05:08:00.005Z,5.75
2019-04-16T05:09:36.738Z,5.67
2019-04-16T05:11:12.583Z,5.65
2019-04-16T05:12:50.463Z,5.79
2019-04-16T05:14:26.085Z,5.83
2019-04-16T05:16:02.731Z,5.93
2019-04-16T05:17:39.276Z,6.02
2019-04-16T05:19:15.724Z,6.00
2019-04-16T05:20:51.547Z,6.17
2019-04-16T05:22:27.454Z,6.24
2019-04-16T05:24:03.808Z,6.28
2019-04-16T05:25:38.993Z,6.34
2019-04-16T05:27:14.854Z,6.45
2019-04-16T05:28:50.313Z,6.51
2019-04-16T05:30:25.708Z,6.43
2019-04-16T05:32:01.293Z,6.52
2019-04-16T05:33:37.568Z,6.59
2019-04-16T05:35:13.615Z,6.60
2019-04-16T05:36:51.904Z,6.69
2019-04-16T05:38:34.509Z,6.76
2019-04-16T05:40:12.028Z,6.83
2019-04-16T05:41:50.522Z,6.92
2019-04-16T05:43:29.995Z,7.03
2019-04-16T05:45:06.401Z,7.09
2019-04-16T05:46:46.672Z,7.18
2019-04-16T05:48:22.064Z,7.27
2019-04-16T05:49:58.768Z,7.38
2019-04-16T05:51:36.747Z,7.51
2019-04-16T05:53:15.875Z,7.63
2019-04-16T05:55:09.778Z,7.75
2019-04-16T05:56:52.378Z,7.87
2019-04-16T05:58:31.562Z,7.99
2019-04-16T06:00:10.539Z,8.07
2019-04-16T06:01:57.194Z,8.17
2019-04-16T06:03:30.976Z,8.24
2019-04-16T06:05:10.087Z,8.37
2019-04-16T06:06:48.325Z,8.44
2019-04-16T06:08:23.433Z,8.56
2019-04-16T06:09:58.928Z,8.65
2019-04-16T06:11:36.516Z,8.74
2019-04-16T06:13:23.900Z,8.75
2019-04-16T06:15:05.692Z,8.84
2019-04-16T06:16:59.193Z,8.94
2019-04-16T06:18:55.973Z,8.93
2019-04-16T06:20:53.793Z,8.93
2019-04-16T06:22:35.528Z,9.08
2019-04-16T06:24:28.544Z,9.15
2019-04-16T06:26:22.553Z,9.16
2019-04-16T06:28:13.615Z,9.28
2019-04-16T06:30:18.134Z,9.49
2019-04-16T06:32:11.859Z,9.47
2019-04-16T06:34:16.016Z,9.56
2019-04-16T06:36:08.299Z,9.60
2019-04-16T06:37:53.224Z,9.53
2019-04-16T06:39:35.886Z,9.56
2019-04-16T06:41:41.542Z,9.74
2019-04-16T06:43:19.175Z,9.98
2019-04-16T06:44:56.376Z,10.09
2019-04-16T06:46:57.419Z,10.01
2019-04-16T06:48:57.934Z,10.33
2019-04-16T06:50:42.598Z,10.48
2019-04-16T06:52:33.925Z,10.64
2019-04-16T06:54:45.324Z,10.87
2019-04-16T06:56:54.310Z,10.90
2019-04-16T06:58:50.929Z,11.07
2019-04-16T07:00:40.540Z,11.29
2019-04-16T07:02:37.591Z,11.46
2019-04-16T07:04:37.574Z,11.65
2019-04-16T07:06:43.959Z,11.56
2019-04-16T07:08:37.576Z,11.63
2019-04-16T07:10:18.184Z,11.49
2019-04-16T07:12:09.236Z,11.69
2019-04-16T07:14:15.508Z,11.81
2019-04-16T07:15:56.906Z,11.68
2019-04-16T07:17:40.646Z,11.81
2019-04-16T07:19:17.392Z,11.75
2019-04-16T07:21:01.855Z,11.65
2019-04-16T07:22:40.768Z,11.82
2019-04-16T07:24:16.531Z,12.12
2019-04-16T07:25:52.903Z,12.34
2019-04-16T07:27:38.606Z,12.25
2019-04-16T07:29:33.223Z,12.22
2019-04-16T07:31:32.713Z,12.24
2019-04-16T07:33:14.658Z,12.05
2019-04-16T07:35:13.234Z,12.20
2019-04-16T07:37:00.455Z,11.96
2019-04-16T07:38:50.458Z,12.10
2019-04-16T07:40:53.309Z,12.27
2019-04-16T07:42:52.351Z,12.23
2019-04-16T07:44:56.081Z,12.30
2019-04-16T07:47:04.990Z,12.26
2019-04-16T07:49:06.579Z,12.81
2019-04-16T07:51:01.786Z,12.89
2019-04-16T07:52:58.311Z,12.81
2019-04-16T07:55:00.922Z,12.86
2019-04-16T07:56:38.072Z,12.74
2019-04-16T07:58:17.179Z,12.80
2019-04-16T07:59:56.173Z,12.96
2019-04-16T08:01:33.552Z,13.18
2019-04-16T08:03:09.136Z,13.23
2019-04-16T08:04:54.235Z,13.48
2019-04-16T08:06:29.268Z,13.20
2019-04-16T08:08:08.350Z,13.57
2019-04-16T08:09:48.506Z,13.54
2019-04-16T08:11:32.279Z,13.88
2019-04-16T08:13:33.319Z,13.45
2019-04-16T08:15:14.288Z,13.80
2019-04-16T08:16:53.940Z,13.97
2019-04-16T08:18:28.976Z,14.32
2019-04-16T08:20:05.988Z,14.50
2019-04-16T08:21:44.245Z,14.27
2019-04-16T08:23:38.940Z,14.39
2019-04-16T08:25:13.272Z,14.26
2019-04-16T08:26:51.948Z,14.46
2019-04-16T08:28:31.483Z,14.59
2019-04-16T08:30:14.038Z,14.74
2019-04-16T08:31:50.934Z,14.96
2019-04-16T08:33:31.590Z,14.74
2019-04-16T08:35:08.844Z,15.26
2019-04-16T08:36:44.819Z,15.60
2019-04-16T08:38:21.148Z,15.60
2019-04-16T08:39:59.413Z,15.80
2019-04-16T08:41:37.733Z,16.08
2019-04-16T08:43:13.221Z,16.26
2019-04-16T08:44:55.273Z,15.97
2019-04-16T08:46:42.222Z,16.05
2019-04-16T08:48:18.903Z,16.31
2019-04-16T08:49:56.202Z,16.40
2019-04-16T08:51:37.776Z,16.72
2019-04-16T08:53:19.140Z,17.03
2019-04-16T08:54:55.000Z,16.73
2019-04-16T08:56:31.696Z,17.17
2019-04-16T08:58:17.034Z,17.22
2019-04-16T08:59:59.232Z,17.05
2019-04-16T09:01:37.467Z,17.10
2019-04-16T09:03:15.452Z,17.14
2019-04-16T09:05:17.188Z,17.34
2019-04-16T09:07:12.180Z,17.65
2019-04-16T09:08:53.006Z,17.92
2019-04-16T09:10:30.875Z,17.81
2019-04-16T09:12:17.329Z,18.16
2019-04-16T09:13:56.245Z,18.17
2019-04-16T09:15:38.424Z,17.64
2019-04-16T09:17:19.077Z,17.86
2019-04-16T09:19:09.710Z,17.83
2019-04-16T09:20:45.956Z,17.68
2019-04-16T09:22:21.772Z,18.39
2019-04-16T09:24:16.224Z,18.36
2019-04-16T09:26:22.495Z,18.10
2019-04-16T09:28:00.782Z,17.99
2019-04-16T09:29:55.286Z,17.90
2019-04-16T09:31:57.502Z,17.62
2019-04-16T09:33:45.124Z,17.76
2019-04-16T09:35:26.112Z,17.62
2019-04-16T09:37:19.520Z,17.66
2019-04-16T09:39:06.712Z,17.73
2019-04-16T09:41:06.319Z,17.87
2019-04-16T09:42:49.048Z,18.08
2019-04-16T09:44:29.800Z,17.97
2019-04-16T09:46:10.464Z,18.33
2019-04-16T09:47:47.776Z,18.69
2019-04-16T09:49:23.328Z,18.64
2019-04-16T09:51:06.268Z,18.75
2019-04-16T09:52:42.939Z,18.92
2019-04-16T09:54:19.430Z,18.82
2019-04-16T09:55:55.185Z,18.53
2019-04-16T09:57:33.017Z,18.51
2019-04-16T09:59:16.298Z,18.48
2019-04-16T10:01:05.108Z,18.50
2019-04-16T10:02:44.096Z,18.05
2019-04-16T10:04:25.507Z,18.60
2019-04-16T10:06:05.508Z,18.81
2019-04-16T10:07:41.919Z,19.03
2019-04-16T10:09:20.984Z,19.09
2019-04-16T10:10:58.103Z,19.41
2019-04-16T10:12:32.670Z,19.60
2019-04-16T10:14:11.494Z,19.46
2019-04-16T10:15:47.701Z,19.40
2019-04-16T10:17:24.002Z,19.57
2019-04-16T10:19:07.655Z,19.59
2019-04-16T10:20:40.450Z,19.45
2019-04-16T10:22:16.481Z,19.23
2019-04-16T10:24:08.645Z,18.81
2019-04-16T10:25:45.324Z,19.10
2019-04-16T10:27:32.234Z,18.97
2019-04-16T10:29:12.614Z,19.35
2019-04-16T10:30:51.669Z,19.29
2019-04-16T10:32:28.674Z,19.08
2019-04-16T10:34:04.047Z,18.88
2019-04-16T10:35:44.403Z,19.27
2019-04-16T10:37:29.421Z,19.37
2019-04-16T10:39:26.294Z,19.63
2019-04-16T10:41:07.605Z,19.99
2019-04-16T10:43:01.169Z,19.71
2019-04-16T10:44:59.723Z,19.47
2019-04-16T10:46:57.574Z,19.87
2019-04-16T10:48:52.022Z,19.76
2019-04-16T10:50:52.715Z,19.84
2019-04-16T10:53:07.349Z,19.56
2019-04-16T10:55:01.320Z,19.04
2019-04-16T10:56:57.171Z,18.95
2019-04-16T10:58:48.499Z,19.05
2019-04-16T11:00:50.033Z,18.80
2019-04-16T11:02:43.992Z,18.81
2019-04-16T11:04:26.085Z,19.06
2019-04-16T11:06:10.981Z,19.14
2019-04-16T11:07:50.376Z,19.36
2019-04-16T11:09:29.901Z,19.42
2019-04-16T11:11:06.885Z,19.30
2019-04-16T11:12:46.970Z,19.30
2019-04-16T11:14:24.337Z,19.67
2019-04-16T11:16:03.615Z,19.42
2019-04-16T11:17:39.603Z,18.94
2019-04-16T11:19:25.295Z,18.69
2019-04-16T11:21:03.748Z,19.24
2019-04-16T11:22:39.609Z,19.14
2019-04-16T11:24:15.843Z,19.11
2019-04-16T11:25:53.432Z,19.37
2019-04-16T11:27:32.091Z,19.74
2019-04-16T11:29:07.343Z,19.68
2019-04-16T11:30:48.611Z,19.99
2019-04-16T11:32:25.254Z,19.92
2019-04-16T11:34:01.068Z,19.90
2019-04-16T11:35:42.743Z,20.10
2019-04-16T11:37:20.293Z,19.95
2019-04-16T11:39:02.910Z,19.67
2019-04-16T11:40:44.098Z,20.07
2019-04-16T11:42:20.597Z,19.89
2019-04-16T11:43:56.132Z,19.86
2019-04-16T11:45:34.376Z,20.06
2019-04-16T11:47:20.655Z,19.82
2019-04-16T11:48:57.108Z,19.61
2019-04-16T11:50:36.010Z,20.00
2019-04-16T11:52:16.545Z,19.59
2019-04-16T11:53:53.138Z,19.46
2019-04-16T11:55:29.999Z,19.57
2019-04-16T11:57:05.378Z,20.15
2019-04-16T11:58:48.323Z,19.78
2019-04-16T12:00:49.605Z,19.52
2019-04-16T12:02:32.438Z,19.76
2019-04-16T12:04:21.014Z,20.27
2019-04-16T12:06:29.045Z,19.98
2019-04-16T12:08:21.668Z,20.14
2019-04-16T12:10:40.125Z,20.12
2019-04-16T12:12:25.231Z,19.86
2019-04-16T12:14:30.977Z,19.91
2019-04-16T12:16:25.444Z,20.22
2019-04-16T12:18:13.383Z,19.92
2019-04-16T12:20:10.697Z,19.98
2019-04-16T12:22:26.148Z,19.57
2019-04-16T12:24:18.676Z,19.37
2019-04-16T12:26:16.126Z,19.64
2019-04-16T12:28:12.351Z,19.70
2019-04-16T12:30:15.565Z,19.37
2019-04-16T12:32:26.691Z,19.35
2019-04-16T12:34:28.465Z,19.60
2019-04-16T12:36:24.362Z,19.58
2019-04-16T12:38:31.012Z,19.67
2019-04-16T12:40:33.148Z,19.43
2019-04-16T12:42:21.776Z,19.15
2019-04-16T12:44:23.882Z,19.74
2019-04-16T12:46:36.486Z,20.05
2019-04-16T12:48:32.447Z,20.03
2019-04-16T12:50:34.329Z,20.32
2019-04-16T12:52:27.459Z,20.35
2019-04-16T12:54:36.100Z,20.50
2019-04-16T12:56:29.533Z,20.08
2019-04-16T12:58:40.107Z,20.26
2019-04-16T13:00:31.500Z,20.64
2019-04-16T13:02:28.006Z,20.72
2019-04-16T13:04:12.129Z,20.72
2019-04-16T13:06:17.547Z,20.83
2019-04-16T13:08:16.048Z,20.23
2019-04-16T13:09:59.201Z,20.14
2019-04-16T13:11:43.831Z,20.20
2019-04-16T13:13:33.411Z,20.31
2019-04-16T13:15:30.673Z,20.22
2019-04-16T13:17:25.580Z,19.88
2019-04-16T13:19:22.756Z,19.75
2019-04-16T13:21:16.058Z,19.92
2019-04-16T13:22:57.124Z,19.64
2019-04-16T13:25:02.169Z,19.86
2019-04-16T13:26:55.491Z,19.67
2019-04-16T13:28:55.234Z,20.02
2019-04-16T13:30:31.294Z,19.83
2019-04-16T13:32:06.563Z,19.66
2019-04-16T13:33:46.167Z,20.02
2019-04-16T13:35:21.491Z,20.08
2019-04-16T13:36:59.609Z,19.34
2019-04-16T13:38:51.262Z,19.19
2019-04-16T13:40:30.827Z,18.98
2019-04-16T13:42:07.710Z,19.20
2019-04-16T13:43:47.663Z,19.14
2019-04-16T13:45:34.975Z,19.36
2019-04-16T13:47:12.760Z,19.37
2019-04-16T13:49:01.096Z,19.66
2019-04-16T13:50:57.424Z,19.55
2019-04-16T13:52:33.290Z,19.65
2019-04-16T13:54:28.350Z,19.77
2019-04-16T13:56:10.445Z,19.63
2019-04-16T13:57:51.414Z,19.71
2019-04-16T13:59:45.238Z,19.71
2019-04-16T14:01:24.278Z,19.20
2019-04-16T14:03:05.807Z,19.24
2019-04-16T14:04:45.209Z,19.14
2019-04-16T14:06:20.402Z,19.39
2019-04-16T14:08:00.265Z,19.54
2019-04-16T14:09:37.429Z,19.88
2019-04-16T14:11:12.795Z,19.95
2019-04-16T14:12:52.589Z,20.23
2019-04-16T14:14:29.557Z,20.23
2019-04-16T14:16:12.749Z,20.25
2019-04-16T14:17:53.061Z,20.28
2019-04-16T14:19:24.819Z,20.40
2019-04-16T14:21:00.755Z,19.97
2019-04-16T14:22:36.408Z,20.16
2019-04-16T14:24:13.083Z,20.09
2019-04-16T14:25:48.403Z,19.70
2019-04-16T14:27:25.063Z,19.32
2019-04-16T14:29:07.810Z,19.51
2019-04-16T14:30:48.752Z,19.79
2019-04-16T14:32:24.261Z,19.88
2019-04-16T14:34:39.678Z,20.16
2019-04-16T14:36:17.848Z,19.78
2019-04-16T14:37:53.201Z,19.58
2019-04-16T14:39:33.352Z,19.38
2019-04-16T14:41:19.928Z,19.25
2019-04-16T14:43:01.318Z,19.42
2019-04-16T14:44:49.054Z,19.90
2019-04-16T14:46:28.539Z,19.88
2019-04-16T14:48:07.636Z,19.81
2019-04-16T14:49:41.574Z,19.94
2019-04-16T14:51:17.344Z,19.96
2019-04-16T14:52:56.334Z,19.85
2019-04-16T14:54:56.262Z,19.68
2019-04-16T14:56:40.205Z,19.58
2019-04-16T14:58:43.304Z,19.76
2019-04-16T15:00:33.713Z,19.37
2019-04-16T15:02:30.467Z,19.42
2019-04-16T15:04:15.882Z,19.48
2019-04-16T15:06:01.155Z,19.48
2019-04-16T15:07:44.494Z,19.91
2019-04-16T15:09:39.591Z,19.96
2019-04-16T15:11:58.397Z,19.57
2019-04-16T15:13:43.943Z,19.38
2019-04-16T15:15:32.969Z,19.37
2019-04-16T15:17:34.540Z,19.45
2019-04-16T15:19:26.253Z,19.33
2019-04-16T15:21:30.389Z,19.14
2019-04-16T15:23:23.611Z,19.22
2019-04-16T15:25:20.684Z,19.11
2019-04-16T15:27:25.265Z,19.15
2019-04-16T15:29:07.550Z,18.88
2019-04-16T15:31:07.928Z,18.85
2019-04-16T15:33:11.629Z,18.86
2019-04-16T15:34:50.437Z,18.65
2019-04-16T15:36:35.423Z,18.18
2019-04-16T15:38:33.122Z,18.29
2019-04-16T15:40:20.004Z,17.98
2019-04-16T15:42:22.896Z,17.83
2019-04-16T15:44:32.020Z,17.64
2019-04-16T15:46:28.970Z,17.54
2019-04-16T15:48:23.082Z,17.23
2019-04-16T15:50:21.027Z,17.22
2019-04-16T15:52:16.410Z,17.26
2019-04-16T15:54:16.873Z,17.14
2019-04-16T15:56:06.275Z,17.20
2019-04-16T15:58:12.889Z,17.30
2019-04-16T16:00:07.355Z,17.33
2019-04-16T16:02:02.233Z,17.23
2019-04-16T16:03:59.367Z,17.29
2019-04-16T16:06:04.816Z,17.24
2019-04-16T16:07:56.014Z,17.19
2019-04-16T16:09:58.090Z,17.04
2019-04-16T16:11:58.869Z,17.11
2019-04-16T16:13:38.855Z,17.01
2019-04-16T16:15:16.738Z,16.91
2019-04-16T16:16:52.189Z,16.88
2019-04-16T16:18:28.501Z,16.84
2019-04-16T16:20:09.686Z,16.77
2019-04-16T16:21:43.339Z,16.78
2019-04-16T16:23:34.090Z,16.70
2019-04-16T16:25:10.840Z,16.71
2019-04-16T16:26:51.985Z,16.68
2019-04-16T16:28:32.088Z,16.77
2019-04-16T16:30:07.552Z,16.70
2019-04-16T16:31:46.845Z,16.67
2019-04-16T16:33:24.532Z,16.59
2019-04-16T16:35:02.557Z,16.50
2019-04-16T16:36:43.856Z,16.53
2019-04-16T16:38:21.112Z,16.43
2019-04-16T16:39:56.734Z,16.37
2019-04-16T16:41:37.266Z,16.34
2019-04-16T16:43:14.268Z,16.33
2019-04-16T16:44:52.737Z,16.22
2019-04-16T16:46:56.702Z,16.22
2019-04-16T16:48:27.836Z,16.05
2019-04-16T16:50:11.596Z,16.02
2019-04-16T16:52:17.801Z,15.97
2019-04-16T16:54:03.278Z,15.91
2019-04-16T16:55:53.897Z,15.83
2019-04-16T16:57:48.692Z,15.76
2019-04-16T16:59:31.761Z,15.66
2019-04-16T17:01:27.147Z,15.63
2019-04-16T17:03:12.542Z,15.56
2019-04-16T17:04:50.007Z,15.54
2019-04-16T17:06:29.757Z,15.46
2019-04-16T17:08:07.521Z,15.41
2019-04-16T17:09:43.859Z,15.40
2019-04-16T17:11:30.342Z,15.34
2019-04-16T17:13:13.081Z,15.24
2019-04-16T17:14:49.641Z,15.18
2019-04-16T17:16:28.909Z,15.16
2019-04-16T17:18:11.901Z,15.08
2019-04-16T17:19:53.277Z,15.01
2019-04-16T17:21:32.652Z,15.00
2019-04-16T17:23:16.476Z,14.98
2019-04-16T17:24:51.997Z,14.91
2019-04-16T17:26:33.399Z,14.84
2019-04-16T17:28:10.279Z,14.81
2019-04-16T17:29:46.607Z,14.83
2019-04-16T17:31:22.758Z,14.79
2019-04-16T17:32:58.612Z,14.73
2019-04-16T17:34:39.756Z,14.69
2019-04-16T17:36:15.807Z,14.71
2019-04-16T17:37:50.964Z,14.69
2019-04-16T17:39:52.407Z,14.63
2019-04-16T17:41:39.807Z,14.59
2019-04-16T17:43:42.071Z,14.54
2019-04-16T17:45:42.479Z,14.49
2019-04-16T17:47:41.193Z,14.42
2019-04-16T17:49:34.987Z,14.35
2019-04-16T17:51:54.619Z,14.24
2019-04-16T17:53:55.335Z,14.18
2019-04-16T17:55:49.967Z,14.11
2019-04-16T17:57:50.676Z,14.10
2019-04-16T17:59:53.861Z,14.07
2019-04-16T18:01:59.998Z,14.02
2019-04-16T18:04:00.770Z,13.87
2019-04-16T18:05:52.467Z,13.70
2019-04-16T18:07:50.845Z,13.51
2019-04-16T18:09:43.792Z,13.42
2019-04-16T18:11:33.036Z,13.38
2019-04-16T18:13:21.297Z,13.22
2019-04-16T18:15:29.926Z,13.11
2019-04-16T18:17:46.073Z,12.99
2019-04-16T18:19:31.509Z,12.89
2019-04-16T18:21:35.198Z,12.76
2019-04-16T18:23:35.330Z,12.72
2019-04-16T18:25:39.261Z,12.56
2019-04-16T18:27:17.588Z,12.49
2019-04-16T18:31:23.406Z,12.26
2019-04-16T18:33:25.150Z,12.15
2019-04-16T18:37:50.600Z,11.93
2019-04-16T18:40:07.164Z,11.78
2019-04-16T18:42:05.524Z,11.68
2019-04-16T18:44:13.377Z,11.57
2019-04-16T18:46:10.017Z,11.42
2019-04-16T18:48:13.145Z,11.38
2019-04-16T18:49:52.999Z,11.22
2019-04-16T18:51:54.514Z,11.12
2019-04-16T18:53:31.053Z,11.07
2019-04-16T18:55:21.175Z,11.06
2019-04-16T18:57:13.159Z,10.99
2019-04-16T18:58:51.396Z,10.91
2019-04-16T19:00:53.290Z,10.82
2019-04-16T19:02:36.202Z,10.71
2019-04-16T19:04:23.369Z,10.63
2019-04-16T19:06:11.485Z,10.60
2019-04-16T19:07:47.795Z,10.57
2019-04-16T19:09:38.891Z,10.48
2019-04-16T19:11:20.705Z,10.45
2019-04-16T19:13:12.310Z,10.39
2019-04-16T19:14:51.259Z,10.29
2019-04-16T19:16:33.312Z,10.29
2019-04-16T19:18:19.227Z,10.22
2019-04-16T19:20:18.446Z,10.16
2019-04-16T19:21:57.573Z,10.15
2019-04-16T19:23:39.138Z,10.06
2019-04-16T19:25:25.410Z,10.00
2019-04-16T19:27:08.092Z,10.01
2019-04-16T19:28:46.502Z,9.91
2019-04-16T19:30:27.417Z,9.85
2019-04-16T19:32:08.089Z,9.79
2019-04-16T19:34:10.660Z,9.76
2019-04-16T19:35:56.186Z,9.69
2019-04-16T19:37:38.349Z,9.58
2019-04-16T19:39:23.757Z,9.63
2019-04-16T19:41:12.862Z,9.65
2019-04-16T19:42:52.968Z,9.63
2019-04-16T19:44:33.310Z,9.53
2019-04-16T19:46:17.201Z,9.55
2019-04-16T19:48:02.408Z,9.59
2019-04-16T19:49:41.043Z,9.52
2019-04-16T19:51:21.656Z,9.47
2019-04-16T19:52:58.040Z,9.24
2019-04-16T19:54:37.602Z,9.11
2019-04-16T19:56:19.652Z,8.95
2019-04-16T19:57:58.958Z,8.83
2019-04-16T19:59:38.747Z,8.85
2019-04-16T20:01:17.361Z,8.83
2019-04-16T20:02:57.456Z,8.82
2019-04-16T20:04:50.741Z,8.93
2019-04-16T20:06:39.572Z,8.87
2019-04-16T20:08:18.641Z,8.75
2019-04-16T20:10:03.679Z,8.63
2019-04-16T20:11:40.403Z,8.53
2019-04-16T20:13:23.217Z,8.46
2019-04-16T20:15:00.419Z,8.61
2019-04-16T20:16:35.923Z,8.52
2019-04-16T20:18:17.103Z,8.66
2019-04-16T20:20:00.069Z,8.69
2019-04-16T20:21:37.678Z,8.56
2019-04-16T20:23:21.871Z,8.42
2019-04-16T20:24:59.229Z,8.38
2019-04-16T20:26:36.881Z,8.41
2019-04-16T20:28:15.443Z,8.43
2019-04-16T20:29:49.513Z,8.42
2019-04-16T20:31:25.841Z,8.45
2019-04-16T20:33:02.919Z,8.34
2019-04-16T20:34:42.337Z,8.26
2019-04-16T20:36:22.530Z,8.25
2019-04-16T20:38:00.096Z,8.18
2019-04-16T20:39:40.780Z,8.11
2019-04-16T20:41:21.180Z,8.04
2019-04-16T20:42:58.241Z,8.14
2019-04-16T20:44:49.309Z,8.21
2019-04-16T20:46:45.408Z,8.12
2019-04-16T20:48:45.047Z,8.23
2019-04-16T20:50:29.203Z,8.14
2019-04-16T20:52:15.254Z,8.00
2019-04-16T20:54:05.164Z,7.99
2019-04-16T20:55:47.069Z,8.07
2019-04-16T20:57:25.389Z,8.12
2019-04-16T20:59:04.054Z,8.11
2019-04-16T21:00:43.110Z,8.00
2019-04-16T21:02:25.327Z,7.95
2019-04-16T21:04:05.790Z,7.98
2019-04-16T21:05:38.325Z,8.07
2019-04-16T21:07:34.771Z,8.13
2019-04-16T21:09:12.513Z,8.16
2019-04-16T21:10:51.670Z,8.19
2019-04-16T21:12:30.989Z,8.27
2019-04-16T21:14:07.262Z,8.52
2019-04-16T21:16:01.321Z,8.74
2019-04-16T21:17:39.148Z,8.97
2019-04-16T21:19:26.492Z,9.14
2019-04-16T21:21:13.433Z,9.27
2019-04-16T21:22:53.195Z,9.41
2019-04-16T21:24:49.663Z,9.48
2019-04-16T21:26:25.359Z,9.44
2019-04-16T21:28:22.381Z,9.41
2019-04-16T21:30:03.083Z,9.37
2019-04-16T21:31:48.439Z,9.28
2019-04-16T21:33:34.703Z,9.23
2019-04-16T21:35:24.206Z,9.17
2019-04-16T21:37:28.083Z,9.16
2019-04-16T21:39:17.442Z,9.14
2019-04-16T21:40:57.852Z,9.11
2019-04-16T21:42:35.793Z,9.12
2019-04-16T21:44:16.778Z,9.13
2019-04-16T21:45:52.021Z,9.23
2019-04-16T21:47:34.695Z,9.18
2019-04-16T21:49:11.320Z,9.18
2019-04-16T21:50:58.110Z,9.16
2019-04-16T21:52:34.893Z,9.13
2019-04-16T21:54:16.506Z,9.10
2019-04-16T21:55:55.808Z,9.15
2019-04-16T21:57:39.437Z,9.13
2019-04-16T21:59:21.934Z,9.18
2019-04-16T22:01:07.719Z,9.19
2019-04-16T22:02:43.899Z,9.18
2019-04-16T22:04:20.555Z,9.24
2019-04-16T22:05:55.938Z,9.24
2019-04-16T22:07:40.594Z,9.25
2019-04-16T22:09:19.801Z,9.24
2019-04-16T22:10:54.583Z,9.24
2019-04-16T22:12:35.344Z,9.25
2019-04-16T22:14:13.550Z,9.25
2019-04-16T22:15:49.545Z,9.31
2019-04-16T22:17:25.210Z,9.37
2019-04-16T22:19:06.672Z,9.40
2019-04-16T22:20:41.716Z,9.39
2019-04-16T22:22:17.404Z,9.42
2019-04-16T22:23:52.887Z,9.45
2019-04-16T22:25:30.188Z,9.45
2019-04-16T22:27:07.050Z,9.47
2019-04-16T22:28:44.424Z,9.51
2019-04-16T22:30:20.248Z,9.52
2019-04-16T22:31:57.122Z,9.52
2019-04-16T22:33:33.453Z,9.54
2019-04-16T22:35:08.652Z,9.56
2019-04-16T22:36:43.715Z,9.55
2019-04-16T22:38:23.277Z,9.54
2019-04-16T22:40:22.581Z,9.53
2019-04-16T22:42:04.966Z,9.56
2019-04-16T22:43:55.641Z,9.60
2019-04-16T22:45:35.914Z,9.63
2019-04-16T22:47:16.343Z,9.64